createdAt,value
2022-09-11T00:01:40.454Z,8.05
2022-09-11T00:04:09.392Z,9.15
2022-09-11T00:06:37.106Z,8.02
2022-09-11T00:09:06.483Z,7.80
2022-09-11T00:11:40.355Z,7.82
2022-09-11T00:14:10.346Z,6.75
2022-09-11T00:16:41.334Z,7.72
2022-09-11T00:19:15.720Z,7.70
2022-09-11T00:21:43.478Z,6.45
2022-09-11T00:24:11.546Z,7.13
2022-09-11T00:26:40.399Z,5.95
2022-09-11T00:29:08.447Z,7.97
2022-09-11T00:31:36.356Z,7.93
2022-09-11T00:34:04.003Z,7.20
2022-09-11T00:36:32.457Z,5.93
2022-09-11T00:39:00.253Z,6.85
2022-09-11T00:41:38.215Z,7.22
2022-09-11T00:44:18.465Z,7.40
2022-09-11T00:46:53.236Z,6.97
2022-09-11T00:49:32.692Z,7.25
2022-09-11T00:52:03.484Z,6.95
2022-09-11T00:54:35.400Z,6.80
2022-09-11T00:57:05.945Z,5.85
2022-09-11T00:59:34.506Z,6.57
2022-09-11T01:02:02.793Z,5.53
2022-09-11T01:04:30.354Z,5.57
2022-09-11T01:06:59.335Z,5.22
2022-09-11T01:09:29.450Z,6.70
2022-09-11T01:12:18.918Z,7.28
2022-09-11T01:15:03.205Z,7.05
2022-09-11T01:17:51.763Z,5.40
2022-09-11T01:20:33.244Z,6.85
2022-09-11T01:23:20.431Z,6.20
2022-09-11T01:25:53.866Z,6.35
2022-09-11T01:28:33.727Z,6.13
2022-09-11T01:31:08.285Z,6.35
2022-09-11T01:33:46.067Z,5.95
2022-09-11T01:36:38.675Z,6.93
2022-09-11T01:39:06.242Z,6.25
2022-09-11T01:42:14.905Z,7.25
2022-09-11T01:44:46.467Z,6.82
2022-09-11T01:47:16.915Z,5.65
2022-09-11T01:49:59.135Z,5.88
2022-09-11T01:52:34.016Z,6.18
2022-09-11T01:55:09.452Z,7.10
2022-09-11T01:57:46.631Z,5.63
2022-09-11T02:00:16.161Z,5.97
2022-09-11T02:02:53.722Z,4.93
2022-09-11T02:05:41.147Z,5.03
2022-09-11T02:08:20.219Z,5.60
2022-09-11T02:11:03.545Z,4.50
2022-09-11T02:13:54.663Z,5.00
2022-09-11T02:16:35.290Z,4.43
2022-09-11T02:19:06.388Z,5.80
2022-09-11T02:21:34.772Z,7.35
2022-09-11T02:24:03.077Z,5.80
2022-09-11T02:26:33.981Z,6.22
2022-09-11T02:29:01.922Z,6.80
2022-09-11T02:31:30.123Z,5.13
2022-09-11T02:33:59.144Z,7.15
2022-09-11T02:36:49.640Z,6.32
2022-09-11T02:39:34.313Z,5.47
2022-09-11T02:42:17.050Z,4.30
2022-09-11T02:44:56.694Z,5.10
2022-09-11T02:48:01.252Z,5.22
2022-09-11T02:50:55.704Z,4.82
2022-09-11T02:53:42.666Z,5.00
2022-09-11T02:56:21.340Z,5.20
2022-09-11T02:58:55.637Z,5.65
2022-09-11T03:01:24.825Z,6.43
2022-09-11T03:03:53.272Z,8.57
2022-09-11T03:06:24.212Z,7.47
2022-09-11T03:08:51.768Z,5.45
2022-09-11T03:11:20.115Z,5.05
2022-09-11T03:13:49.780Z,5.80
2022-09-11T03:16:17.982Z,5.15
2022-09-11T03:18:45.728Z,5.30
2022-09-11T03:21:15.035Z,5.82
2022-09-11T03:23:43.952Z,6.55
2022-09-11T03:26:11.718Z,6.80
2022-09-11T03:28:39.874Z,7.07
2022-09-11T03:31:09.540Z,5.55
2022-09-11T03:33:37.569Z,4.65
2022-09-11T03:36:05.779Z,6.07
2022-09-11T03:38:33.302Z,5.65
2022-09-11T03:41:04.569Z,5.82
2022-09-11T03:46:01.099Z,6.93
2022-09-11T03:48:29.556Z,7.78
2022-09-11T03:50:58.962Z,6.22
2022-09-11T03:53:27.554Z,6.60
2022-09-11T03:55:55.181Z,5.25
2022-09-11T03:58:23.331Z,6.38
2022-09-11T04:00:50.938Z,6.95
2022-09-11T04:03:19.206Z,6.00
2022-09-11T04:06:01.077Z,6.70
2022-09-11T04:08:33.769Z,6.05
2022-09-11T04:13:36.166Z,6.53
2022-09-11T04:16:10.713Z,7.93
2022-09-11T04:18:43.210Z,6.45
2022-09-11T04:21:14.370Z,6.78
2022-09-11T04:23:42.206Z,6.07
2022-09-11T04:26:16.619Z,7.05
2022-09-11T04:28:46.511Z,6.28
2022-09-11T04:31:16.729Z,6.35
2022-09-11T04:33:45.828Z,6.32
2022-09-11T04:36:19.990Z,7.28
2022-09-11T04:38:49.052Z,7.10
2022-09-11T04:41:17.697Z,7.75
2022-09-11T04:43:45.262Z,7.00
2022-09-11T04:46:17.734Z,6.88
2022-09-11T04:48:47.510Z,7.97
2022-09-11T04:51:29.276Z,6.57
2022-09-11T04:53:58.514Z,5.38
2022-09-11T04:56:34.326Z,5.55
2022-09-11T04:59:06.887Z,6.60
2022-09-11T05:01:36.627Z,6.78
2022-09-11T05:04:04.355Z,5.82
2022-09-11T05:06:37.963Z,5.18
2022-09-11T05:09:10.775Z,5.70
2022-09-11T05:11:39.385Z,5.93
2022-09-11T05:14:07.702Z,6.45
2022-09-11T05:16:37.982Z,6.32
2022-09-11T05:19:05.835Z,6.97
2022-09-11T05:21:35.091Z,5.22
2022-09-11T05:24:04.519Z,6.57
2022-09-11T05:26:37.137Z,7.78
2022-09-11T05:29:12.537Z,7.93
2022-09-11T05:31:48.370Z,8.27
2022-09-11T05:34:21.223Z,8.25
2022-09-11T05:36:50.270Z,8.52
2022-09-11T05:39:18.704Z,7.07
2022-09-11T05:41:46.286Z,7.68
2022-09-11T05:44:14.070Z,7.15
2022-09-11T05:46:41.939Z,7.32
2022-09-11T05:49:09.495Z,7.93
2022-09-11T05:51:38.111Z,8.77
2022-09-11T05:54:07.081Z,7.53
2022-09-11T05:56:35.611Z,8.35
2022-09-11T05:59:15.755Z,8.30
2022-09-11T06:01:45.636Z,7.50
2022-09-11T06:04:22.466Z,7.30
2022-09-11T06:06:52.595Z,8.00
2022-09-11T06:09:20.371Z,7.93
2022-09-11T06:11:48.051Z,7.70
2022-09-11T06:14:15.669Z,6.65
2022-09-11T06:16:45.300Z,6.88
2022-09-11T06:19:16.897Z,9.37
2022-09-11T06:21:45.943Z,8.20
2022-09-11T06:24:24.724Z,9.13
2022-09-11T06:26:52.415Z,7.95
2022-09-11T06:29:21.294Z,7.55
2022-09-11T06:31:51.533Z,8.10
2022-09-11T06:34:22.935Z,8.45
2022-09-11T06:36:52.278Z,8.27
2022-09-11T06:39:23.133Z,8.52
2022-09-11T06:41:53.938Z,8.27
2022-09-11T06:44:27.609Z,8.32
2022-09-11T06:49:27.300Z,6.90
2022-09-11T06:52:32.832Z,8.07
2022-09-11T06:55:16.155Z,8.98
2022-09-11T06:57:51.325Z,8.60
2022-09-11T07:00:23.700Z,9.30
2022-09-11T07:02:54.592Z,8.60
2022-09-11T07:07:53.018Z,11.48
2022-09-11T07:10:20.633Z,11.07
2022-09-11T07:12:55.372Z,11.98
2022-09-11T07:15:23.275Z,13.45
2022-09-11T07:17:50.800Z,14.13
2022-09-11T07:20:18.551Z,15.00
2022-09-11T07:22:46.756Z,15.68
2022-09-11T07:25:18.077Z,15.45
2022-09-11T07:27:45.740Z,17.00
2022-09-11T07:30:15.568Z,18.75
2022-09-11T07:32:46.310Z,20.40
2022-09-11T07:35:21.641Z,22.42
2022-09-11T07:37:52.829Z,21.73
2022-09-11T07:40:24.985Z,22.88
2022-09-11T07:42:53.387Z,22.10
2022-09-11T07:45:22.884Z,22.83
2022-09-11T07:47:51.110Z,23.55
2022-09-11T07:50:19.046Z,23.25
2022-09-11T07:52:46.859Z,22.23
2022-09-11T07:55:15.697Z,22.65
2022-09-11T07:57:45.607Z,20.95
2022-09-11T08:00:14.786Z,18.63
2022-09-11T08:02:48.598Z,18.67
2022-09-11T08:05:22.822Z,18.55
2022-09-11T08:07:51.114Z,18.85
2022-09-11T08:10:28.497Z,17.95
2022-09-11T08:13:00.012Z,18.15
2022-09-11T08:15:32.947Z,16.85
2022-09-11T08:18:02.269Z,16.40
2022-09-11T08:20:31.326Z,17.30
2022-09-11T08:22:58.938Z,16.25
2022-09-11T08:25:28.619Z,16.63
2022-09-11T08:27:57.690Z,17.25
2022-09-11T08:30:26.817Z,16.42
2022-09-11T08:32:54.539Z,15.88
2022-09-11T08:35:22.213Z,14.73
2022-09-11T08:37:54.221Z,14.75
2022-09-11T08:40:22.906Z,14.75
2022-09-11T08:42:52.965Z,14.52
2022-09-11T08:45:23.589Z,14.00
2022-09-11T08:47:54.171Z,13.68
2022-09-11T08:50:27.599Z,13.82
2022-09-11T08:52:57.278Z,11.73
2022-09-11T08:55:44.824Z,12.70
2022-09-11T08:58:51.930Z,12.35
2022-09-11T09:01:38.350Z,12.18
2022-09-11T09:04:41.452Z,11.45
2022-09-11T09:07:36.543Z,12.32
2022-09-11T09:10:41.663Z,12.02
2022-09-11T09:13:27.980Z,11.60
2022-09-11T09:16:11.005Z,12.15
2022-09-11T09:19:14.237Z,10.95
2022-09-11T09:21:59.491Z,10.77
2022-09-11T09:24:32.823Z,10.60
2022-09-11T09:27:05.505Z,10.98
2022-09-11T09:29:39.710Z,10.20
2022-09-11T09:32:22.131Z,10.13
2022-09-11T09:34:55.307Z,11.23
2022-09-11T09:37:26.353Z,11.23
2022-09-11T09:39:54.870Z,11.05
2022-09-11T09:42:50.467Z,10.77
2022-09-11T09:45:37.568Z,10.90
2022-09-11T09:48:08.454Z,12.00
2022-09-11T09:50:39.739Z,12.63
2022-09-11T09:53:27.389Z,12.45
2022-09-11T09:55:56.696Z,11.40
2022-09-11T09:58:32.211Z,12.68
2022-09-11T10:00:59.829Z,12.27
2022-09-11T10:03:27.433Z,11.75
2022-09-11T10:05:56.520Z,12.18
2022-09-11T10:08:37.154Z,11.73
2022-09-11T10:11:12.134Z,14.30
2022-09-11T10:13:54.090Z,11.95
2022-09-11T10:16:27.438Z,12.55
2022-09-11T10:18:56.388Z,12.65
2022-09-11T10:21:37.502Z,11.75
2022-09-11T10:24:17.526Z,12.88
2022-09-11T10:26:49.841Z,13.45
2022-09-11T10:29:24.423Z,12.55
2022-09-11T10:31:57.432Z,12.88
2022-09-11T10:34:27.995Z,12.57
2022-09-11T10:37:07.845Z,13.98
2022-09-11T10:39:37.036Z,13.75
2022-09-11T10:42:12.117Z,14.43
2022-09-11T10:44:44.111Z,15.07
2022-09-11T10:47:22.287Z,15.73
2022-09-11T10:49:49.899Z,16.67
2022-09-11T10:52:20.058Z,15.93
2022-09-11T10:55:00.207Z,15.90
2022-09-11T10:57:52.171Z,15.73
2022-09-11T11:00:29.003Z,18.88
2022-09-11T11:03:11.113Z,17.92
2022-09-11T11:06:00.208Z,17.15
2022-09-11T11:09:01.962Z,18.05
2022-09-11T11:14:17.906Z,18.33
2022-09-11T11:17:02.301Z,17.35
2022-09-11T11:19:47.127Z,17.70
2022-09-11T11:22:29.980Z,19.02
2022-09-11T11:25:22.946Z,17.65
2022-09-11T11:28:02.190Z,21.23
2022-09-11T11:30:31.231Z,18.63
2022-09-11T11:33:01.696Z,17.60
2022-09-11T11:35:52.338Z,15.50
2022-09-11T11:38:27.818Z,14.25
2022-09-11T11:41:03.149Z,15.15
2022-09-11T11:43:37.090Z,13.52
2022-09-11T11:46:21.559Z,14.18
2022-09-11T11:48:55.298Z,14.57
2022-09-11T11:51:28.158Z,13.52
2022-09-11T11:54:06.707Z,15.13
2022-09-11T11:56:52.213Z,14.02
2022-09-11T11:59:38.039Z,13.43
2022-09-11T12:02:21.915Z,12.85
2022-09-11T12:05:05.398Z,13.30
2022-09-11T12:07:35.347Z,12.93
2022-09-11T12:10:05.675Z,13.63
2022-09-11T12:12:48.287Z,12.82
2022-09-11T12:15:24.646Z,14.43
2022-09-11T12:18:05.215Z,14.18
2022-09-11T12:20:37.857Z,13.63
2022-09-11T12:23:08.253Z,13.52
2022-09-11T12:25:36.105Z,12.83
2022-09-11T12:28:22.264Z,12.60
2022-09-11T12:31:00.416Z,11.98
2022-09-11T12:33:50.420Z,10.60
2022-09-11T12:36:24.463Z,10.70
2022-09-11T12:39:17.807Z,11.57
2022-09-11T12:41:45.972Z,10.65
2022-09-11T12:44:54.091Z,11.63
2022-09-11T12:47:41.293Z,11.15
2022-09-11T12:50:11.618Z,10.43
2022-09-11T12:52:45.044Z,9.32
2022-09-11T12:55:41.155Z,9.50
2022-09-11T12:58:20.655Z,9.77
2022-09-11T13:00:50.821Z,9.48
2022-09-11T13:03:24.619Z,9.50
2022-09-11T13:06:00.064Z,9.45
2022-09-11T13:08:31.919Z,9.25
2022-09-11T13:11:36.734Z,9.73
2022-09-11T13:14:29.688Z,9.50
2022-09-11T13:16:59.468Z,7.93
2022-09-11T13:19:35.839Z,7.78
2022-09-11T13:22:31.108Z,8.27
2022-09-11T13:25:06.376Z,8.57
2022-09-11T13:27:39.477Z,7.75
2022-09-11T13:30:08.518Z,8.75
2022-09-11T13:32:36.287Z,8.48
2022-09-11T13:35:11.596Z,7.93
2022-09-11T13:37:41.744Z,7.03
2022-09-11T13:40:19.372Z,6.40
2022-09-11T13:42:48.863Z,6.78
2022-09-11T13:45:19.124Z,6.82
2022-09-11T13:47:46.635Z,6.77
2022-09-11T13:50:17.175Z,7.93
2022-09-11T13:52:46.548Z,6.85
2022-09-11T13:55:19.186Z,7.57
2022-09-11T13:57:56.272Z,6.57
2022-09-11T14:00:41.991Z,6.60
2022-09-11T14:03:31.591Z,8.02
2022-09-11T14:06:08.442Z,7.05
2022-09-11T14:08:40.328Z,9.75
2022-09-11T14:11:15.874Z,7.47
2022-09-11T14:14:01.024Z,7.38
2022-09-11T14:16:45.978Z,6.82
2022-09-11T14:19:21.341Z,7.85
2022-09-11T14:21:50.999Z,8.00
2022-09-11T14:24:33.607Z,7.70
2022-09-11T14:27:21.950Z,7.75
2022-09-11T14:29:55.651Z,8.43
2022-09-11T14:32:35.798Z,7.88
2022-09-11T14:35:06.632Z,7.63
2022-09-11T14:37:41.114Z,7.45
2022-09-11T14:40:15.819Z,7.07
2022-09-11T14:42:43.944Z,6.68
2022-09-11T14:45:19.943Z,6.63
2022-09-11T14:47:47.536Z,6.70
2022-09-11T14:50:15.118Z,6.50
2022-09-11T14:52:42.980Z,6.50
2022-09-11T14:55:19.219Z,6.68
2022-09-11T14:57:47.435Z,6.07
2022-09-11T15:00:16.888Z,6.65
2022-09-11T15:02:44.478Z,6.13
2022-09-11T15:05:17.842Z,6.43
2022-09-11T15:07:45.699Z,6.05
2022-09-11T15:10:14.213Z,6.15
2022-09-11T15:12:42.641Z,5.45
2022-09-11T15:15:11.629Z,6.32
2022-09-11T15:17:39.442Z,7.43
2022-09-11T15:20:09.250Z,5.65
2022-09-11T15:22:38.351Z,6.20
2022-09-11T15:25:06.745Z,6.15
2022-09-11T15:27:34.298Z,5.95
2022-09-11T15:30:02.377Z,5.82
2022-09-11T15:32:31.323Z,5.68
2022-09-11T15:34:58.867Z,5.68
2022-09-11T15:37:26.605Z,5.57
2022-09-11T15:39:54.158Z,5.85
2022-09-11T15:42:23.116Z,6.15
2022-09-11T15:44:51.935Z,6.25
2022-09-11T15:47:19.520Z,5.75
2022-09-11T15:49:50.039Z,5.35
2022-09-11T15:52:18.037Z,5.50
2022-09-11T15:54:47.636Z,5.22
2022-09-11T15:57:15.651Z,5.53
2022-09-11T15:59:43.303Z,5.28
2022-09-11T16:02:14.126Z,5.13
2022-09-11T16:04:41.711Z,5.10
2022-09-11T16:09:52.647Z,5.18
2022-09-11T16:12:20.248Z,4.88
2022-09-11T16:14:48.206Z,5.30
2022-09-11T16:17:19.419Z,5.18
2022-09-11T16:19:47.615Z,5.30
2022-09-11T16:22:15.178Z,5.25
2022-09-11T16:24:43.483Z,5.13
2022-09-11T16:27:11.114Z,4.20
2022-09-11T16:32:37.483Z,4.80
2022-09-11T16:35:06.888Z,4.53
2022-09-11T16:37:35.352Z,5.03
2022-09-11T16:40:04.496Z,4.40
2022-09-11T16:42:32.258Z,4.38
2022-09-11T16:44:59.786Z,5.25
2022-09-11T16:47:30.352Z,5.18
2022-09-11T16:50:13.333Z,4.80
2022-09-11T16:52:41.022Z,5.60
2022-09-11T16:55:09.816Z,5.22
2022-09-11T16:57:37.940Z,5.60
2022-09-11T17:00:07.719Z,4.85
2022-09-11T17:02:35.429Z,4.97
2022-09-11T17:05:04.842Z,5.10
2022-09-11T17:07:33.885Z,4.70
2022-09-11T17:10:02.074Z,4.80
2022-09-11T17:12:29.680Z,5.18
2022-09-11T17:14:57.230Z,5.30
2022-09-11T17:17:25.344Z,4.80
2022-09-11T17:19:52.921Z,4.97
2022-09-11T17:22:20.636Z,5.22
2022-09-11T17:24:48.330Z,6.28
2022-09-11T17:27:16.032Z,5.65
2022-09-11T17:29:44.890Z,5.55
2022-09-11T17:32:31.192Z,5.63
2022-09-11T17:34:59.098Z,4.82
2022-09-11T17:37:27.486Z,5.07
2022-09-11T17:39:55.532Z,5.50
2022-09-11T17:42:24.026Z,5.30
2022-09-11T17:44:51.896Z,4.90
2022-09-11T17:47:19.578Z,4.53
2022-09-11T17:49:47.198Z,5.00
2022-09-11T17:52:15.550Z,4.75
2022-09-11T17:54:43.056Z,4.82
2022-09-11T17:57:11.944Z,4.72
2022-09-11T17:59:39.612Z,4.90
2022-09-11T18:02:07.505Z,4.90
2022-09-11T18:04:35.050Z,5.35
2022-09-11T18:07:03.592Z,4.93
2022-09-11T18:09:32.078Z,5.03
2022-09-11T18:11:59.579Z,4.85
2022-09-11T18:14:27.771Z,5.30
2022-09-11T18:16:55.809Z,5.10
2022-09-11T18:19:24.372Z,5.47
2022-09-11T18:21:53.027Z,5.20
2022-09-11T18:24:20.896Z,5.45
2022-09-11T18:26:51.519Z,5.25
2022-09-11T18:29:20.983Z,5.10
2022-09-11T18:31:52.131Z,5.10
2022-09-11T18:34:22.655Z,4.43
2022-09-11T18:36:50.356Z,5.45
2022-09-11T18:39:19.025Z,4.30
2022-09-11T18:41:47.440Z,4.53
2022-09-11T18:44:19.824Z,4.90
2022-09-11T18:46:48.749Z,5.22
2022-09-11T18:49:17.175Z,4.75
2022-09-11T18:51:44.706Z,5.30
2022-09-11T18:54:21.084Z,5.25
2022-09-11T18:56:50.609Z,5.88
2022-09-11T18:59:20.158Z,5.22
2022-09-11T19:01:48.235Z,5.50
2022-09-11T19:04:16.908Z,4.88
2022-09-11T19:06:45.294Z,4.70
2022-09-11T19:09:14.202Z,5.78
2022-09-11T19:11:42.714Z,5.03
2022-09-11T19:14:12.544Z,4.00
2022-09-11T19:16:40.599Z,4.93
2022-09-11T19:19:09.030Z,3.72
2022-09-11T19:21:38.378Z,3.60
2022-09-11T19:24:06.871Z,3.90
2022-09-11T19:26:40.193Z,2.88
2022-09-11T19:29:13.311Z,2.75
2022-09-11T19:31:42.232Z,2.63
2022-09-11T19:34:12.139Z,2.30
2022-09-11T19:36:41.122Z,2.08
2022-09-11T19:39:10.067Z,2.67
2022-09-11T19:41:39.084Z,2.45
2022-09-11T19:44:12.322Z,2.65
2022-09-11T19:46:41.670Z,2.28
2022-09-11T19:49:11.184Z,2.22
2022-09-11T19:51:41.971Z,2.92
2022-09-11T19:54:12.832Z,2.40
2022-09-11T19:56:41.800Z,2.33
2022-09-11T19:59:10.232Z,2.20
2022-09-11T20:01:37.915Z,2.58
2022-09-11T20:04:06.161Z,2.42
2022-09-11T20:06:34.945Z,2.08
2022-09-11T20:11:51.599Z,2.22
2022-09-11T20:14:19.133Z,2.40
2022-09-11T20:16:47.663Z,2.00
2022-09-11T20:19:17.198Z,2.85
2022-09-11T20:21:44.819Z,2.20
2022-09-11T20:24:12.350Z,2.10
2022-09-11T20:26:39.889Z,2.13
2022-09-11T20:29:11.729Z,2.30
2022-09-11T20:31:48.898Z,2.63
2022-09-11T20:34:20.082Z,2.42
2022-09-11T20:36:48.048Z,2.28
2022-09-11T20:39:15.991Z,2.50
2022-09-11T20:41:43.866Z,2.63
2022-09-11T20:44:12.075Z,2.13
2022-09-11T20:46:40.070Z,2.47
2022-09-11T20:49:07.661Z,2.42
2022-09-11T20:51:35.367Z,1.88
2022-09-11T20:54:04.090Z,2.17
2022-09-11T20:56:34.846Z,2.20
2022-09-11T20:59:02.396Z,2.10
2022-09-11T21:01:32.539Z,1.90
2022-09-11T21:04:02.387Z,1.92
2022-09-11T21:06:32.553Z,2.17
2022-09-11T21:09:03.823Z,2.10
2022-09-11T21:11:31.671Z,2.03
2022-09-11T21:13:59.523Z,2.20
2022-09-11T21:16:27.633Z,2.33
2022-09-11T21:18:57.948Z,2.42
2022-09-11T21:21:27.431Z,1.98
2022-09-11T21:24:04.075Z,2.63
2022-09-11T21:26:33.144Z,2.25
2022-09-11T21:29:03.844Z,2.10
2022-09-11T21:31:31.788Z,2.22
2022-09-11T21:33:59.887Z,2.17
2022-09-11T21:36:28.293Z,2.35
2022-09-11T21:38:56.091Z,2.55
2022-09-11T21:41:23.697Z,2.25
2022-09-11T21:43:51.473Z,2.15
2022-09-11T21:46:19.071Z,2.10
2022-09-11T21:48:46.767Z,2.10
2022-09-11T21:51:16.524Z,2.30
2022-09-11T21:53:46.002Z,2.42
2022-09-11T21:56:25.000Z,2.30
2022-09-11T21:58:53.834Z,2.10
2022-09-11T22:01:23.248Z,1.88
2022-09-11T22:03:51.490Z,2.10
2022-09-11T22:06:20.435Z,2.63
2022-09-11T22:08:47.990Z,1.85
2022-09-11T22:11:16.140Z,1.90
2022-09-11T22:13:44.745Z,2.78
2022-09-11T22:16:14.924Z,2.05
2022-09-11T22:18:43.148Z,1.95
2022-09-11T22:21:10.861Z,2.00
2022-09-11T22:23:38.666Z,2.13
2022-09-11T22:26:07.465Z,1.90
2022-09-11T22:28:38.494Z,2.45
2022-09-11T22:31:13.418Z,1.92
2022-09-11T22:33:41.699Z,2.10
2022-09-11T22:36:09.406Z,1.80
2022-09-11T22:38:37.199Z,2.05
2022-09-11T22:41:05.381Z,1.83
2022-09-11T22:43:33.084Z,1.70
2022-09-11T22:46:01.687Z,2.22
2022-09-11T22:48:29.318Z,2.10
2022-09-11T22:50:57.630Z,2.20
2022-09-11T22:53:27.536Z,2.00
2022-09-11T22:55:55.367Z,1.90
2022-09-11T22:58:23.822Z,2.65
2022-09-11T23:00:54.928Z,1.80
2022-09-11T23:03:22.981Z,2.00
2022-09-11T23:06:16.871Z,1.83
2022-09-11T23:08:48.418Z,1.80
2022-09-11T23:11:19.799Z,2.00
2022-09-11T23:13:48.774Z,2.00
2022-09-11T23:16:20.271Z,2.10
2022-09-11T23:18:48.435Z,1.80
2022-09-11T23:21:15.998Z,2.20
2022-09-11T23:23:44.895Z,2.40
2022-09-11T23:26:13.987Z,1.83
2022-09-11T23:28:42.301Z,1.88
2022-09-11T23:31:20.493Z,2.20
2022-09-11T23:33:48.948Z,2.58
2022-09-11T23:36:17.504Z,2.65
2022-09-11T23:38:46.265Z,2.75
2022-09-11T23:41:14.582Z,2.65
2022-09-11T23:43:42.359Z,2.70
2022-09-11T23:46:10.439Z,2.65
2022-09-11T23:48:38.214Z,3.03
2022-09-11T23:51:06.099Z,3.45
2022-09-11T23:53:33.637Z,3.60
2022-09-11T23:56:01.315Z,3.10
2022-09-11T23:58:28.893Z,3.53
